sensor_id;sensor_type;location;lat;lon;timestamp;pressure;altitude;pressure_sealevel;temperature;humidity
10071;BME280;5074;53.720;10.014;2022-08-19T00:01:24;100862.22;;;18.44;100.00
10071;BME280;5074;53.720;10.014;2022-08-19T00:03:56;100860.19;;;18.48;100.00
10071;BME280;5074;53.720;10.014;2022-08-19T00:06:24;100859.19;;;18.49;100.00
10071;BME280;5074;53.720;10.014;2022-08-19T00:08:53;100849.16;;;18.51;100.00
10071;BME280;5074;53.720;10.014;2022-08-19T00:11:23;100840.94;;;18.52;100.00
10071;BME280;5074;53.720;10.014;2022-08-19T00:13:52;100837.25;;;18.53;100.00
10071;BME280;5074;53.720;10.014;2022-08-19T00:16:23;100844.59;;;18.51;100.00
10071;BME280;5074;53.720;10.014;2022-08-19T00:18:53;100827.81;;;18.46;100.00
10071;BME280;5074;53.720;10.014;2022-08-19T00:21:22;100834.09;;;18.47;100.00
10071;BME280;5074;53.720;10.014;2022-08-19T00:23:51;100825.44;;;18.42;100.00
10071;BME280;5074;53.720;10.014;2022-08-19T00:26:19;100834.72;;;18.37;100.00
10071;BME280;5074;53.720;10.014;2022-08-19T00:28:49;100831.66;;;18.29;100.00
10071;BME280;5074;53.720;10.014;2022-08-19T00:31:17;100836.97;;;18.31;100.00
10071;BME280;5074;53.720;10.014;2022-08-19T00:33:45;100828.09;;;18.29;100.00
10071;BME280;5074;53.720;10.014;2022-08-19T00:36:14;100823.44;;;18.31;100.00
10071;BME280;5074;53.720;10.014;2022-08-19T00:38:42;100822.25;;;18.35;100.00
10071;BME280;5074;53.720;10.014;2022-08-19T00:41:14;100817.66;;;18.22;100.00
10071;BME280;5074;53.720;10.014;2022-08-19T00:43:43;100817.22;;;18.16;100.00
10071;BME280;5074;53.720;10.014;2022-08-19T00:46:12;100826.28;;;18.15;100.00
10071;BME280;5074;53.720;10.014;2022-08-19T00:48:40;100825.03;;;18.20;100.00
10071;BME280;5074;53.720;10.014;2022-08-19T00:51:08;100827.03;;;18.17;100.00
10071;BME280;5074;53.720;10.014;2022-08-19T00:53:37;100825.53;;;18.13;100.00
10071;BME280;5074;53.720;10.014;2022-08-19T00:56:06;100812.66;;;18.16;100.00
10071;BME280;5074;53.720;10.014;2022-08-19T00:58:35;100795.22;;;18.08;100.00
10071;BME280;5074;53.720;10.014;2022-08-19T01:01:04;100810.38;;;18.10;100.00
10071;BME280;5074;53.720;10.014;2022-08-19T01:03:35;100812.09;;;18.11;100.00
10071;BME280;5074;53.720;10.014;2022-08-19T01:06:24;100807.19;;;18.03;100.00
10071;BME280;5074;53.720;10.014;2022-08-19T01:08:53;100801.16;;;18.00;100.00
10071;BME280;5074;53.720;10.014;2022-08-19T01:11:22;100805.31;;;17.91;100.00
10071;BME280;5074;53.720;10.014;2022-08-19T01:13:52;100811.69;;;17.90;100.00
10071;BME280;5074;53.720;10.014;2022-08-19T01:16:23;100811.59;;;17.92;100.00
10071;BME280;5074;53.720;10.014;2022-08-19T01:18:53;100803.66;;;17.88;100.00
10071;BME280;5074;53.720;10.014;2022-08-19T01:21:27;100803.84;;;17.85;100.00
10071;BME280;5074;53.720;10.014;2022-08-19T01:23:59;100800.34;;;17.83;100.00
10071;BME280;5074;53.720;10.014;2022-08-19T01:26:27;100789.97;;;17.77;100.00
10071;BME280;5074;53.720;10.014;2022-08-19T01:28:58;100794.31;;;17.80;100.00
10071;BME280;5074;53.720;10.014;2022-08-19T01:31:29;100792.03;;;17.86;100.00
10071;BME280;5074;53.720;10.014;2022-08-19T01:34:00;100793.13;;;17.84;100.00
10071;BME280;5074;53.720;10.014;2022-08-19T01:36:32;100792.56;;;17.79;100.00
10071;BME280;5074;53.720;10.014;2022-08-19T01:39:05;100792.25;;;17.83;100.00
10071;BME280;5074;53.720;10.014;2022-08-19T01:41:34;100784.03;;;17.85;100.00
10071;BME280;5074;53.720;10.014;2022-08-19T01:44:03;100788.91;;;17.80;100.00
10071;BME280;5074;53.720;10.014;2022-08-19T01:46:46;100787.25;;;17.77;100.00
10071;BME280;5074;53.720;10.014;2022-08-19T01:49:17;100787.91;;;17.81;100.00
10071;BME280;5074;53.720;10.014;2022-08-19T01:51:46;100786.28;;;17.78;100.00
10071;BME280;5074;53.720;10.014;2022-08-19T01:54:17;100782.91;;;17.75;100.00
10071;BME280;5074;53.720;10.014;2022-08-19T01:56:57;100785.16;;;17.68;100.00
10071;BME280;5074;53.720;10.014;2022-08-19T01:59:25;100787.28;;;17.63;100.00
10071;BME280;5074;53.720;10.014;2022-08-19T02:01:54;100787.28;;;17.63;100.00
10071;BME280;5074;53.720;10.014;2022-08-19T02:04:22;100784.88;;;17.58;100.00
10071;BME280;5074;53.720;10.014;2022-08-19T02:06:52;100771.41;;;17.44;100.00
10071;BME280;5074;53.720;10.014;2022-08-19T02:09:21;100770.72;;;17.40;100.00
10071;BME280;5074;53.720;10.014;2022-08-19T02:11:49;100774.28;;;17.41;100.00
10071;BME280;5074;53.720;10.014;2022-08-19T02:14:17;100767.81;;;17.43;100.00
10071;BME280;5074;53.720;10.014;2022-08-19T02:16:45;100775.34;;;17.38;100.00
10071;BME280;5074;53.720;10.014;2022-08-19T02:19:14;100772.66;;;17.38;100.00
10071;BME280;5074;53.720;10.014;2022-08-19T02:21:42;100775.34;;;17.38;100.00
10071;BME280;5074;53.720;10.014;2022-08-19T02:24:10;100775.44;;;17.36;100.00
10071;BME280;5074;53.720;10.014;2022-08-19T02:26:40;100763.09;;;17.32;100.00
10071;BME280;5074;53.720;10.014;2022-08-19T02:29:08;100763.59;;;17.25;100.00
10071;BME280;5074;53.720;10.014;2022-08-19T02:31:36;100765.13;;;17.29;100.00
10071;BME280;5074;53.720;10.014;2022-08-19T02:34:04;100759.72;;;17.29;100.00
10071;BME280;5074;53.720;10.014;2022-08-19T02:36:32;100769.00;;;17.25;100.00
10071;BME280;5074;53.720;10.014;2022-08-19T02:39:00;100758.38;;;17.22;100.00
10071;BME280;5074;53.720;10.014;2022-08-19T02:41:29;100752.78;;;17.25;100.00
10071;BME280;5074;53.720;10.014;2022-08-19T02:44:01;100755.66;;;17.22;100.00
10071;BME280;5074;53.720;10.014;2022-08-19T02:46:50;100753.94;;;17.21;100.00
10071;BME280;5074;53.720;10.014;2022-08-19T02:49:19;100722.31;;;17.08;100.00
10071;BME280;5074;53.720;10.014;2022-08-19T02:51:47;100723.19;;;17.09;100.00
10071;BME280;5074;53.720;10.014;2022-08-19T02:54:15;100758.19;;;17.25;100.00
10071;BME280;5074;53.720;10.014;2022-08-19T02:56:44;100760.59;;;17.29;100.00
10071;BME280;5074;53.720;10.014;2022-08-19T02:59:14;100761.47;;;17.30;100.00
10071;BME280;5074;53.720;10.014;2022-08-19T03:01:42;100770.72;;;17.26;100.00
10071;BME280;5074;53.720;10.014;2022-08-19T03:04:12;100765.13;;;17.29;100.00
10071;BME280;5074;53.720;10.014;2022-08-19T03:06:43;100764.94;;;17.32;100.00
10071;BME280;5074;53.720;10.014;2022-08-19T03:09:12;100770.50;;;17.29;100.00
10071;BME280;5074;53.720;10.014;2022-08-19T03:11:40;100766.84;;;17.30;100.00
10071;BME280;5074;53.720;10.014;2022-08-19T03:14:09;100761.56;;;17.28;100.00
10071;BME280;5074;53.720;10.014;2022-08-19T03:16:43;100766.47;;;17.22;100.00
10071;BME280;5074;53.720;10.014;2022-08-19T03:19:12;100769.84;;;17.25;100.00
10071;BME280;5074;53.720;10.014;2022-08-19T03:21:43;100768.13;;;17.24;100.00
10071;BME280;5074;53.720;10.014;2022-08-19T03:24:13;100768.13;;;17.24;100.00
10071;BME280;5074;53.720;10.014;2022-08-19T03:26:44;100764.34;;;17.27;100.00
10071;BME280;5074;53.720;10.014;2022-08-19T03:29:12;100764.94;;;17.32;100.00
10071;BME280;5074;53.720;10.014;2022-08-19T03:31:53;100768.59;;;17.31;100.00
10071;BME280;5074;53.720;10.014;2022-08-19T03:34:24;100761.56;;;17.28;100.00
10071;BME280;5074;53.720;10.014;2022-08-19T03:36:53;100767.47;;;17.21;100.00
10071;BME280;5074;53.720;10.014;2022-08-19T03:39:22;100766.47;;;17.22;100.00
10071;BME280;5074;53.720;10.014;2022-08-19T03:41:52;100780.84;;;17.22;100.00
10071;BME280;5074;53.720;10.014;2022-08-19T03:44:43;100753.06;;;17.06;100.00
10071;BME280;5074;53.720;10.014;2022-08-19T03:47:13;100784.41;;;17.23;100.00
10071;BME280;5074;53.720;10.014;2022-08-19T03:49:43;100787.81;;;17.26;100.00
10071;BME280;5074;53.720;10.014;2022-08-19T03:52:12;100798.63;;;17.26;100.00
10071;BME280;5074;53.720;10.014;2022-08-19T03:54:40;100801.22;;;17.28;100.00
10071;BME280;5074;53.720;10.014;2022-08-19T03:57:09;100800.06;;;17.32;100.00
10071;BME280;5074;53.720;10.014;2022-08-19T03:59:38;100810.75;;;17.33;100.00
10071;BME280;5074;53.720;10.014;2022-08-19T04:02:09;100802.06;;;17.28;100.00
10071;BME280;5074;53.720;10.014;2022-08-19T04:04:41;100795.22;;;17.23;100.00
10071;BME280;5074;53.720;10.014;2022-08-19T04:07:10;100776.72;;;17.16;100.00
10071;BME280;5074;53.720;10.014;2022-08-19T04:09:39;100807.06;;;17.34;100.00
10071;BME280;5074;53.720;10.014;2022-08-19T04:12:08;100809.88;;;17.33;100.00
10071;BME280;5074;53.720;10.014;2022-08-19T04:14:36;100814.13;;;17.37;100.00
10071;BME280;5074;53.720;10.014;2022-08-19T04:17:04;100772.66;;;17.09;100.00
10071;BME280;5074;53.720;10.014;2022-08-19T04:19:33;100820.03;;;17.29;100.00
10071;BME280;5074;53.720;10.014;2022-08-19T04:22:04;100823.97;;;17.38;100.00
10071;BME280;5074;53.720;10.014;2022-08-19T04:24:34;100823.28;;;17.34;100.00
10071;BME280;5074;53.720;10.014;2022-08-19T04:27:03;100825.72;;;17.39;100.00
10071;BME280;5074;53.720;10.014;2022-08-19T04:29:33;100838.34;;;17.39;100.00
10071;BME280;5074;53.720;10.014;2022-08-19T04:32:02;100813.06;;;17.25;100.00
10071;BME280;5074;53.720;10.014;2022-08-19T04:34:36;100829.56;;;17.49;100.00
10071;BME280;5074;53.720;10.014;2022-08-19T04:37:26;100835.25;;;17.45;100.00
10071;BME280;5074;53.720;10.014;2022-08-19T04:40:04;100835.09;;;17.48;100.00
10071;BME280;5074;53.720;10.014;2022-08-19T04:42:50;100833.88;;;17.52;100.00
10071;BME280;5074;53.720;10.014;2022-08-19T04:45:18;100836.31;;;17.57;100.00
10071;BME280;5074;53.720;10.014;2022-08-19T04:47:48;100839.13;;;17.55;100.00
10071;BME280;5074;53.720;10.014;2022-08-19T04:50:40;100833.81;;;17.53;100.00
10071;BME280;5074;53.720;10.014;2022-08-19T04:53:09;100838.44;;;17.51;100.00
10071;BME280;5074;53.720;10.014;2022-08-19T04:55:39;100844.63;;;17.53;100.00
10071;BME280;5074;53.720;10.014;2022-08-19T04:58:08;100847.03;;;17.58;100.00
10071;BME280;5074;53.720;10.014;2022-08-19T05:00:38;100846.72;;;17.63;100.00
10071;BME280;5074;53.720;10.014;2022-08-19T05:03:07;100848.75;;;17.59;100.00
10071;BME280;5074;53.720;10.014;2022-08-19T05:05:38;100847.03;;;17.58;100.00
10071;BME280;5074;53.720;10.014;2022-08-19T05:08:13;100843.75;;;17.53;100.00
10071;BME280;5074;53.720;10.014;2022-08-19T05:10:57;100842.09;;;17.50;100.00
10071;BME280;5074;53.720;10.014;2022-08-19T05:13:26;100851.28;;;17.48;100.00
10071;BME280;5074;53.720;10.014;2022-08-19T05:15:55;100856.78;;;17.46;100.00
10071;BME280;5074;53.720;10.014;2022-08-19T05:18:25;100847.78;;;17.46;100.00
10071;BME280;5074;53.720;10.014;2022-08-19T05:21:12;100842.03;;;17.38;100.00
10071;BME280;5074;53.720;10.014;2022-08-19T05:24:00;100855.44;;;17.39;100.00
10071;BME280;5074;53.720;10.014;2022-08-19T05:26:28;100862.75;;;17.37;100.00
10071;BME280;5074;53.720;10.014;2022-08-19T05:28:56;100854.09;;;17.32;100.00
10071;BME280;5074;53.720;10.014;2022-08-19T05:31:26;100870.09;;;17.35;100.00
10071;BME280;5074;53.720;10.014;2022-08-19T05:33:54;100863.72;;;17.36;100.00
10071;BME280;5074;53.720;10.014;2022-08-19T05:36:22;100872.81;;;17.35;100.00
10071;BME280;5074;53.720;10.014;2022-08-19T05:38:50;100870.09;;;17.35;100.00
10071;BME280;5074;53.720;10.014;2022-08-19T05:41:21;100862.75;;;17.37;100.00
10071;BME280;5074;53.720;10.014;2022-08-19T05:43:57;100864.50;;;17.38;100.00
10071;BME280;5074;53.720;10.014;2022-08-19T05:46:26;100863.91;;;17.33;100.00
10071;BME280;5074;53.720;10.014;2022-08-19T05:48:54;100867.41;;;17.35;100.00
10071;BME280;5074;53.720;10.014;2022-08-19T05:51:25;100854.75;;;17.35;100.00
10071;BME280;5074;53.720;10.014;2022-08-19T05:53:55;100847.50;;;17.36;100.00
10071;BME280;5074;53.720;10.014;2022-08-19T05:56:24;100851.19;;;17.35;100.00
10071;BME280;5074;53.720;10.014;2022-08-19T05:58:52;100853.19;;;17.31;100.00
10071;BME280;5074;53.720;10.014;2022-08-19T06:01:20;100847.22;;;17.26;100.00
10071;BME280;5074;53.720;10.014;2022-08-19T06:03:48;100852.03;;;17.21;100.00
10071;BME280;5074;53.720;10.014;2022-08-19T06:06:18;100855.69;;;17.20;100.00
10071;BME280;5074;53.720;10.014;2022-08-19T06:08:46;100851.94;;;17.23;100.00
10071;BME280;5074;53.720;10.014;2022-08-19T06:11:19;100853.00;;;17.20;100.00
10071;BME280;5074;53.720;10.014;2022-08-19T06:13:51;100860.53;;;17.29;100.00
10071;BME280;5074;53.720;10.014;2022-08-19T06:16:26;100854.25;;;17.29;100.00
10071;BME280;5074;53.720;10.014;2022-08-19T06:18:55;100848.47;;;17.35;100.00
10071;BME280;5074;53.720;10.014;2022-08-19T06:21:26;100849.63;;;17.31;100.00
10071;BME280;5074;53.720;10.014;2022-08-19T06:23:55;100852.72;;;17.25;100.00
10071;BME280;5074;53.720;10.014;2022-08-19T06:26:25;100850.97;;;17.24;100.00
10071;BME280;5074;53.720;10.014;2022-08-19T06:28:55;100845.28;;;17.28;100.00
10071;BME280;5074;53.720;10.014;2022-08-19T06:31:26;100855.59;;;17.36;100.00
10071;BME280;5074;53.720;10.014;2022-08-19T06:33:54;100860.25;;;17.34;100.00
10071;BME280;5074;53.720;10.014;2022-08-19T06:36:25;100857.44;;;17.35;100.00
10071;BME280;5074;53.720;10.014;2022-08-19T06:38:58;100850.88;;;17.40;100.00
10071;BME280;5074;53.720;10.014;2022-08-19T06:41:27;100855.03;;;17.45;100.00
10071;BME280;5074;53.720;10.014;2022-08-19T06:43:57;100851.94;;;17.51;100.00
10071;BME280;5074;53.720;10.014;2022-08-19T06:46:26;100823.03;;;17.39;100.00
10071;BME280;5074;53.720;10.014;2022-08-19T06:48:54;100858.22;;;17.66;100.00
10071;BME280;5074;53.720;10.014;2022-08-19T06:51:23;100849.03;;;17.69;100.00
10071;BME280;5074;53.720;10.014;2022-08-19T06:53:57;100845.59;;;17.67;100.00
10071;BME280;5074;53.720;10.014;2022-08-19T06:56:27;100839.69;;;17.60;100.00
10071;BME280;5074;53.720;10.014;2022-08-19T06:59:02;100846.84;;;17.61;100.00
10071;BME280;5074;53.720;10.014;2022-08-19T07:01:34;100848.47;;;17.64;100.00
10071;BME280;5074;53.720;10.014;2022-08-19T07:04:05;100858.13;;;17.68;100.00
10071;BME280;5074;53.720;10.014;2022-08-19T07:06:37;100860.25;;;17.63;100.00
10071;BME280;5074;53.720;10.014;2022-08-19T07:09:12;100862.00;;;17.64;100.00
10071;BME280;5074;53.720;10.014;2022-08-19T07:11:45;100871.25;;;17.60;100.00
10071;BME280;5074;53.720;10.014;2022-08-19T07:14:17;100874.53;;;17.50;100.00
10071;BME280;5074;53.720;10.014;2022-08-19T07:16:47;100847.50;;;17.36;100.00
10071;BME280;5074;53.720;10.014;2022-08-19T07:19:17;100861.31;;;17.46;100.00
10071;BME280;5074;53.720;10.014;2022-08-19T07:21:46;100863.06;;;17.47;100.00
10071;BME280;5074;53.720;10.014;2022-08-19T07:24:14;100836.69;;;17.36;100.00
10071;BME280;5074;53.720;10.014;2022-08-19T07:26:43;100868.34;;;17.48;100.00
10071;BME280;5074;53.720;10.014;2022-08-19T07:29:12;100871.06;;;17.48;100.00
10071;BME280;5074;53.720;10.014;2022-08-19T07:31:41;100862.66;;;17.53;100.00
10071;BME280;5074;53.720;10.014;2022-08-19T07:34:11;100875.13;;;17.56;100.00
10071;BME280;5074;53.720;10.014;2022-08-19T07:36:41;100882.16;;;17.58;100.00
10071;BME280;5074;53.720;10.014;2022-08-19T07:39:12;100877.53;;;17.60;100.00
10071;BME280;5074;53.720;10.014;2022-08-19T07:41:41;100883.63;;;17.64;100.00
10071;BME280;5074;53.720;10.014;2022-08-19T07:44:09;100881.47;;;17.69;100.00
10071;BME280;5074;53.720;10.014;2022-08-19T07:46:43;100886.69;;;17.72;100.00
10071;BME280;5074;53.720;10.014;2022-08-19T07:49:16;100886.56;;;17.74;100.00
10071;BME280;5074;53.720;10.014;2022-08-19T07:51:47;100887.28;;;17.77;100.00
10071;BME280;5074;53.720;10.014;2022-08-19T07:54:16;100888.13;;;17.78;100.00
10071;BME280;5074;53.720;10.014;2022-08-19T07:56:45;100886.88;;;17.83;100.00
10071;BME280;5074;53.720;10.014;2022-08-19T07:59:13;100889.78;;;17.80;100.00
10071;BME280;5074;53.720;10.014;2022-08-19T08:01:43;100895.06;;;17.82;100.00
10071;BME280;5074;53.720;10.014;2022-08-19T08:04:12;100906.00;;;17.80;100.00
10071;BME280;5074;53.720;10.014;2022-08-19T08:06:57;100913.81;;;17.85;100.00
10071;BME280;5074;53.720;10.014;2022-08-19T08:09:43;100914.44;;;17.90;100.00
10071;BME280;5074;53.720;10.014;2022-08-19T08:12:19;100914.50;;;17.88;100.00
10071;BME280;5074;53.720;10.014;2022-08-19T08:15:04;100918.34;;;17.84;100.00
10071;BME280;5074;53.720;10.014;2022-08-19T08:17:40;100921.47;;;17.93;100.00
10071;BME280;5074;53.720;10.014;2022-08-19T08:20:18;100924.81;;;17.82;100.00
10071;BME280;5074;53.720;10.014;2022-08-19T08:22:47;100923.25;;;17.78;100.00
10071;BME280;5074;53.720;10.014;2022-08-19T08:25:34;100921.25;;;17.81;100.00
10071;BME280;5074;53.720;10.014;2022-08-19T08:28:04;100930.31;;;17.80;100.00
10071;BME280;5074;53.720;10.014;2022-08-19T08:30:37;100921.47;;;17.93;100.00
10071;BME280;5074;53.720;10.014;2022-08-19T08:33:12;100925.44;;;18.01;100.00
10071;BME280;5074;53.720;10.014;2022-08-19T08:35:45;100927.84;;;18.06;100.00
10071;BME280;5074;53.720;10.014;2022-08-19T08:38:13;100931.41;;;18.07;100.00
10071;BME280;5074;53.720;10.014;2022-08-19T08:40:44;100923.97;;;18.10;100.00
10071;BME280;5074;53.720;10.014;2022-08-19T08:43:22;100930.91;;;18.14;100.00
10071;BME280;5074;53.720;10.014;2022-08-19T08:46:00;100932.16;;;18.23;100.00
10071;BME280;5074;53.720;10.014;2022-08-19T08:48:36;100937.25;;;18.28;100.00
10071;BME280;5074;53.720;10.014;2022-08-19T08:51:10;100934.56;;;18.28;100.00
10071;BME280;5074;53.720;10.014;2022-08-19T08:53:40;100935.69;;;18.38;100.00
10071;BME280;5074;53.720;10.014;2022-08-19T08:56:10;100927.38;;;18.41;100.00
10071;BME280;5074;53.720;10.014;2022-08-19T08:58:51;100927.00;;;18.33;100.00
10071;BME280;5074;53.720;10.014;2022-08-19T09:01:22;100929.03;;;18.29;100.00
10071;BME280;5074;53.720;10.014;2022-08-19T09:03:57;100932.69;;;18.43;100.00
10071;BME280;5074;53.720;10.014;2022-08-19T09:06:32;100930.97;;;18.42;100.00
10071;BME280;5074;53.720;10.014;2022-08-19T09:09:13;100931.78;;;18.56;100.00
10071;BME280;5074;53.720;10.014;2022-08-19T09:11:55;100934.00;;;18.50;100.00
10071;BME280;5074;53.720;10.014;2022-08-19T09:14:34;100933.47;;;18.45;100.00
10071;BME280;5074;53.720;10.014;2022-08-19T09:17:22;100930.34;;;18.51;100.00
10071;BME280;5074;53.720;10.014;2022-08-19T09:19:59;100933.53;;;18.57;100.00
10071;BME280;5074;53.720;10.014;2022-08-19T09:22:35;100929.81;;;18.58;100.00
10071;BME280;5074;53.720;10.014;2022-08-19T09:25:05;100934.06;;;18.63;100.00
10071;BME280;5074;53.720;10.014;2022-08-19T09:27:36;100938.53;;;18.64;100.00
10071;BME280;5074;53.720;10.014;2022-08-19T09:30:14;100938.09;;;18.70;100.00
10071;BME280;5074;53.720;10.014;2022-08-19T09:32:43;100943.78;;;18.80;100.00
10071;BME280;5074;53.720;10.014;2022-08-19T09:35:14;100942.09;;;18.91;100.00
10071;BME280;5074;53.720;10.014;2022-08-19T09:37:42;100948.53;;;19.03;100.00
10071;BME280;5074;53.720;10.014;2022-08-19T09:40:11;100941.81;;;19.09;100.00
10071;BME280;5074;53.720;10.014;2022-08-19T09:42:41;100938.97;;;18.98;100.00
10071;BME280;5074;53.720;10.014;2022-08-19T09:45:18;100928.56;;;18.91;100.00
10071;BME280;5074;53.720;10.014;2022-08-19T09:47:49;100931.78;;;18.84;100.00
10071;BME280;5074;53.720;10.014;2022-08-19T09:50:22;100936.19;;;18.85;100.00
10071;BME280;5074;53.720;10.014;2022-08-19T09:52:51;100930.41;;;18.91;100.00
10071;BME280;5074;53.720;10.014;2022-08-19T09:55:25;100932.25;;;18.90;100.00
10071;BME280;5074;53.720;10.014;2022-08-19T09:58:00;100923.28;;;19.03;100.00
10071;BME280;5074;53.720;10.014;2022-08-19T10:00:29;100935.00;;;19.16;100.00
10071;BME280;5074;53.720;10.014;2022-08-19T10:02:57;100932.66;;;19.24;100.00
10071;BME280;5074;53.720;10.014;2022-08-19T10:05:28;100926.69;;;19.32;100.00
10071;BME280;5074;53.720;10.014;2022-08-19T10:08:16;100931.38;;;19.43;100.00
10071;BME280;5074;53.720;10.014;2022-08-19T10:10:47;100925.75;;;19.59;100.00
10071;BME280;5074;53.720;10.014;2022-08-19T10:13:17;100925.63;;;19.60;100.00
10071;BME280;5074;53.720;10.014;2022-08-19T10:15:48;100921.41;;;19.69;100.00
10071;BME280;5074;53.720;10.014;2022-08-19T10:18:19;100920.75;;;19.91;100.00
10071;BME280;5074;53.720;10.014;2022-08-19T10:20:50;100930.06;;;20.00;100.00
10071;BME280;5074;53.720;10.014;2022-08-19T10:23:19;100928.53;;;20.09;100.00
10071;BME280;5074;53.720;10.014;2022-08-19T10:25:48;100935.50;;;19.87;100.00
10071;BME280;5074;53.720;10.014;2022-08-19T10:28:20;100942.31;;;19.67;100.00
10071;BME280;5074;53.720;10.014;2022-08-19T10:30:49;100941.44;;;19.67;100.00
10071;BME280;5074;53.720;10.014;2022-08-19T10:33:18;100934.41;;;19.64;100.00
10071;BME280;5074;53.720;10.014;2022-08-19T10:36:09;100934.84;;;19.58;100.00
10071;BME280;5074;53.720;10.014;2022-08-19T10:38:38;100932.47;;;19.53;100.00
10071;BME280;5074;53.720;10.014;2022-08-19T10:41:23;100930.72;;;19.39;100.00
10071;BME280;5074;53.720;10.014;2022-08-19T10:43:52;100933.00;;;19.46;100.00
10071;BME280;5074;53.720;10.014;2022-08-19T10:46:22;100925.50;;;19.49;100.00
10071;BME280;5074;53.720;10.014;2022-08-19T10:48:51;100928.34;;;19.48;100.00
10071;BME280;5074;53.720;10.014;2022-08-19T10:51:21;100928.09;;;19.38;100.00
10071;BME280;5074;53.720;10.014;2022-08-19T10:54:14;100927.56;;;19.33;100.00
10071;BME280;5074;53.720;10.014;2022-08-19T10:56:56;100929.16;;;19.22;100.00
10071;BME280;5074;53.720;10.014;2022-08-19T10:59:26;100928.09;;;19.25;100.00
10071;BME280;5074;53.720;10.014;2022-08-19T11:02:05;100924.84;;;19.20;100.00
10071;BME280;5074;53.720;10.014;2022-08-19T11:04:33;100919.84;;;19.26;100.00
10071;BME280;5074;53.720;10.014;2022-08-19T11:07:03;100924.75;;;19.21;100.00
10071;BME280;5074;53.720;10.014;2022-08-19T11:09:37;100912.41;;;19.30;100.00
10071;BME280;5074;53.720;10.014;2022-08-19T11:12:06;100924.53;;;19.50;100.00
10071;BME280;5074;53.720;10.014;2022-08-19T11:14:35;100922.03;;;19.73;100.00
10071;BME280;5074;53.720;10.014;2022-08-19T11:17:04;100912.94;;;20.00;100.00
10071;BME280;5074;53.720;10.014;2022-08-19T11:19:33;100915.66;;;20.37;100.00
10071;BME280;5074;53.720;10.014;2022-08-19T11:22:03;100913.81;;;20.61;100.00
10071;BME280;5074;53.720;10.014;2022-08-19T11:24:35;100914.44;;;20.65;100.00
10071;BME280;5074;53.720;10.014;2022-08-19T11:27:06;100917.59;;;20.72;100.00
10071;BME280;5074;53.720;10.014;2022-08-19T11:29:37;100914.34;;;20.91;100.00
10071;BME280;5074;53.720;10.014;2022-08-19T11:32:09;100920.78;;;21.01;100.00
10071;BME280;5074;53.720;10.014;2022-08-19T11:34:37;100923.97;;;21.19;100.00
10071;BME280;5074;53.720;10.014;2022-08-19T11:37:07;100921.91;;;21.45;100.00
10071;BME280;5074;53.720;10.014;2022-08-19T11:39:36;100925.78;;;21.19;100.00
10071;BME280;5074;53.720;10.014;2022-08-19T11:42:06;100921.03;;;21.33;100.00
10071;BME280;5074;53.720;10.014;2022-08-19T11:44:49;100918.19;;;21.35;100.00
10071;BME280;5074;53.720;10.014;2022-08-19T11:47:17;100928.53;;;21.30;100.00
10071;BME280;5074;53.720;10.014;2022-08-19T11:49:45;100917.75;;;21.17;100.00
10071;BME280;5074;53.720;10.014;2022-08-19T11:52:15;100909.72;;;21.15;100.00
10071;BME280;5074;53.720;10.014;2022-08-19T11:54:43;100913.25;;;20.93;100.00
10071;BME280;5074;53.720;10.014;2022-08-19T11:57:11;100905.97;;;20.70;100.00
10071;BME280;5074;53.720;10.014;2022-08-19T11:59:41;100909.44;;;20.72;100.00
10071;BME280;5074;53.720;10.014;2022-08-19T12:02:09;100907.63;;;20.59;100.00
10071;BME280;5074;53.720;10.014;2022-08-19T12:04:38;100913.09;;;20.46;100.00
10071;BME280;5074;53.720;10.014;2022-08-19T12:07:06;100915.19;;;20.43;100.00
10071;BME280;5074;53.720;10.014;2022-08-19T12:09:35;100914.09;;;20.45;100.00
10071;BME280;5074;53.720;10.014;2022-08-19T12:12:09;100912.94;;;20.61;100.00
10071;BME280;5074;53.720;10.014;2022-08-19T12:14:37;100916.66;;;20.60;100.00
10071;BME280;5074;53.720;10.014;2022-08-19T12:17:05;100926.84;;;20.56;100.00
10071;BME280;5074;53.720;10.014;2022-08-19T12:19:36;100917.47;;;20.73;100.00
10071;BME280;5074;53.720;10.014;2022-08-19T12:22:06;100920.38;;;20.83;100.00
10071;BME280;5074;53.720;10.014;2022-08-19T12:24:35;100926.31;;;20.88;100.00
10071;BME280;5074;53.720;10.014;2022-08-19T12:27:03;100930.22;;;20.60;100.00
10071;BME280;5074;53.720;10.014;2022-08-19T12:29:38;100921.44;;;20.56;100.00
10071;BME280;5074;53.720;10.014;2022-08-19T12:32:06;100924.84;;;20.47;100.00
10071;BME280;5074;53.720;10.014;2022-08-19T12:34:38;100919.09;;;20.39;100.00
10071;BME280;5074;53.720;10.014;2022-08-19T12:37:06;100916.63;;;20.36;100.00
10071;BME280;5074;53.720;10.014;2022-08-19T12:39:38;100903.56;;;20.41;100.00
10071;BME280;5074;53.720;10.014;2022-08-19T12:42:08;100911.94;;;20.75;100.00
10071;BME280;5074;53.720;10.014;2022-08-19T12:44:37;100907.97;;;21.03;100.00
10071;BME280;5074;53.720;10.014;2022-08-19T12:47:10;100909.38;;;21.31;100.00
10071;BME280;5074;53.720;10.014;2022-08-19T12:49:40;100885.88;;;21.89;100.00
10071;BME280;5074;53.720;10.014;2022-08-19T12:52:22;100900.19;;;22.36;100.00
10071;BME280;5074;53.720;10.014;2022-08-19T12:54:53;100890.72;;;22.84;100.00
10071;BME280;5074;53.720;10.014;2022-08-19T12:57:23;100890.47;;;23.08;100.00
10071;BME280;5074;53.720;10.014;2022-08-19T13:00:00;100896.09;;;23.49;100.00
10071;BME280;5074;53.720;10.014;2022-08-19T13:02:30;100891.97;;;23.12;100.00